CÀNOVES I SAMALÚS (Vallès Oriental)





Hora UTC 03:00
Temperatura 15.6 ºC
Humitat 80.2 %
Pressió 1012.2 hPa
Pluja 0.0 mm
Velocitat vent 0.9 km/h
Direcció vent SSE
Radiació solar 0.1 W/m²

Dades diàries 2024-05-30



Hora UTC (hivern +1h; estiu +2h)
Temperatura (ºC) Humitat (%) Pressió (hPa) Velocitat vent (km/h) Precipitació (mm) Radiació solar (W/m²)
Hora UTC Aire Humitat Pressió Vel. Dir. Vel. Max Dir. Intent. màx 5 min. Rad. Sol.
00:05 16.3 86.7 1013.8 1.6 NW 1.6 WSW 0.0 0.1
00:10 16.5 88.1 1013.7 2.0 WSW 6.4 WSW 0.0 0.1
00:15 16.7 89.3 1013.7 2.9 W 6.7 WNW 0.0 0.1
00:20 16.9 90.3 1013.7 5.6 W 11.6 WSW 0.0 0.1
00:25 16.9 90.5 1013.6 5.6 W 11.6 WSW 0.0 0.1
00:30 16.9 90.8 1013.6 4.8 W 10.2 W 0.0 0.1
00:35 16.9 91.1 1013.6 5.0 W 9.5 WNW 0.0 0.1
00:40 16.9 91.3 1013.6 3.1 W 6.4 WSW 0.0 0.1
00:45 16.9 91.4 1013.6 4.3 W 8.1 W 0.0 0.1
00:50 16.9 91.3 1013.6 3.7 W 8.5 W 0.0 0.1
00:55 16.8 91.2 1013.5 2.9 WNW 7.4 WSW 0.0 0.1
01:00 16.7 90.8 1013.5 3.3 WNW 5.6 WNW 0.0 0.1
01:05 16.5 90.1 1013.5 2.8 WNW 6.7 WSW 0.0 0.1
01:10 16.3 89.9 1013.4 2.3 WNW 4.2 WNW 0.0 0.1
01:15 16.1 89.8 1013.4 2.8 WNW 5.6 WSW 0.0 0.1
01:20 16.0 89.2 1013.3 3.6 NW 5.3 WNW 0.0 0.1
01:25 15.7 87.9 1013.3 4.2 NW 5.6 NNW 0.0 0.1
01:30 15.6 87.6 1013.3 4.8 NNW 6.0 N 0.0 0.1
01:35 15.5 87.2 1013.2 3.5 NNW 6.4 N 0.0 0.1
01:40 15.4 87.3 1013.1 3.1 NNW 4.6 NNW 0.0 0.1
01:45 15.4 87.4 1013.0 3.4 NNW 4.6 NNW 0.0 0.1
01:50 15.3 87.1 1012.9 3.4 NNW 4.9 NW 0.0 0.1
01:55 15.3 87.9 1012.9 3.7 NW 5.6 NNW 0.0 0.1
02:00 15.4 88.3 1012.8 4.0 NNW 7.4 NW 0.0 0.1
02:05 15.3 87.5 1012.8 4.5 NW 6.4 NW 0.0 0.1
02:10 15.3 87.4 1012.7 4.1 NNW 6.0 NNW 0.0 0.1
02:15 15.3 86.7 1012.7 4.8 NNW 8.5 NW 0.0 0.1
02:20 15.3 86.2 1012.6 4.5 NW 6.0 NNW 0.0 0.1
02:25 15.3 85.8 1012.5 4.5 NNW 7.8 NW 0.0 0.1
02:30 15.3 85.1 1012.4 4.1 NW 6.7 NW 0.0 0.1
02:35 15.2 84.6 1012.3 4.3 NW 8.1 NNW 0.0 0.1
02:40 15.2 83.9 1012.3 4.7 NW 8.5 N 0.0 0.1
02:45 15.3 82.2 1012.2 5.0 NW 10.9 NW 0.0 0.1
02:50 15.7 79.9 1012.2 5.4 W 12.4 WNW 0.0 0.1
02:55 15.7 79.8 1012.2 1.9 W 4.6 SW 0.0 0.1
03:00 15.6 80.2 1012.2 0.9 SSE 2.8 SW 0.0 0.1
Màxima 17.0 91.4 1013.8 5.6 W 12.4 WNW 0.0 0.1
Mínima 15.1 79.8 1012.2
Total 0.0